sensor_id;sensor_type;location;lat;lon;timestamp;P1;durP1;ratioP1;P2;durP2;ratioP2
78854;SDS011;68206;59.956;30.234;2024-03-23T00:53:52;1.45;;;0.93;;
78854;SDS011;68206;59.956;30.234;2024-03-23T00:56:19;0.98;;;0.60;;
78854;SDS011;68206;59.956;30.234;2024-03-23T00:58:46;1.08;;;0.82;;
78854;SDS011;68206;59.956;30.234;2024-03-23T01:01:12;0.80;;;0.80;;
78854;SDS011;68206;59.956;30.234;2024-03-23T01:03:39;1.58;;;1.00;;
78854;SDS011;68206;59.956;30.234;2024-03-23T01:06:05;1.73;;;1.20;;
78854;SDS011;68206;59.956;30.234;2024-03-23T01:08:32;0.73;;;0.73;;
78854;SDS011;68206;59.956;30.234;2024-03-23T01:11:00;1.05;;;0.93;;
78854;SDS011;68206;59.956;30.234;2024-03-23T01:13:28;0.90;;;0.90;;
78854;SDS011;68206;59.956;30.234;2024-03-23T01:15:55;1.70;;;0.98;;
78854;SDS011;68206;59.956;30.234;2024-03-23T01:18:23;1.70;;;0.98;;
78854;SDS011;68206;59.956;30.234;2024-03-23T01:20:52;1.13;;;1.02;;
78854;SDS011;68206;59.956;30.234;2024-03-23T01:23:19;1.10;;;1.00;;
78854;SDS011;68206;59.956;30.234;2024-03-23T01:25:51;1.17;;;0.85;;
78854;SDS011;68206;59.956;30.234;2024-03-23T01:28:21;0.88;;;0.65;;
78854;SDS011;68206;59.956;30.234;2024-03-23T01:30:47;1.00;;;0.75;;
78854;SDS011;68206;59.956;30.234;2024-03-23T01:33:15;1.10;;;0.88;;
78854;SDS011;68206;59.956;30.234;2024-03-23T01:35:41;1.25;;;0.80;;
78854;SDS011;68206;59.956;30.234;2024-03-23T01:38:09;1.42;;;0.88;;
78854;SDS011;68206;59.956;30.234;2024-03-23T01:40:35;1.15;;;1.08;;
78854;SDS011;68206;59.956;30.234;2024-03-23T01:43:03;0.65;;;0.65;;
78854;SDS011;68206;59.956;30.234;2024-03-23T01:45:32;1.00;;;0.70;;
78854;SDS011;68206;59.956;30.234;2024-03-23T01:47:59;1.10;;;0.90;;
78854;SDS011;68206;59.956;30.234;2024-03-23T01:50:26;0.57;;;0.50;;
78854;SDS011;68206;59.956;30.234;2024-03-23T01:52:54;0.57;;;0.57;;
78854;SDS011;68206;59.956;30.234;2024-03-23T01:55:20;1.30;;;0.80;;
78854;SDS011;68206;59.956;30.234;2024-03-23T01:57:49;1.27;;;0.85;;
78854;SDS011;68206;59.956;30.234;2024-03-23T02:02:45;2.25;;;0.73;;
78854;SDS011;68206;59.956;30.234;2024-03-23T02:05:12;0.68;;;0.68;;
78854;SDS011;68206;59.956;30.234;2024-03-23T02:07:40;1.23;;;0.68;;
78854;SDS011;68206;59.956;30.234;2024-03-23T02:10:08;0.77;;;0.52;;
78854;SDS011;68206;59.956;30.234;2024-03-23T02:12:38;1.30;;;0.80;;
78854;SDS011;68206;59.956;30.234;2024-03-23T02:15:05;0.68;;;0.63;;
78854;SDS011;68206;59.956;30.234;2024-03-23T02:17:34;1.63;;;0.90;;
78854;SDS011;68206;59.956;30.234;2024-03-23T02:20:03;0.63;;;0.63;;
78854;SDS011;68206;59.956;30.234;2024-03-23T02:22:38;0.68;;;0.60;;
78854;SDS011;68206;59.956;30.234;2024-03-23T02:27:33;0.93;;;0.65;;
78854;SDS011;68206;59.956;30.234;2024-03-23T02:30:01;0.80;;;0.57;;
78854;SDS011;68206;59.956;30.234;2024-03-23T02:32:30;0.50;;;0.40;;
78854;SDS011;68206;59.956;30.234;2024-03-23T02:34:56;1.60;;;0.80;;
78854;SDS011;68206;59.956;30.234;2024-03-23T02:37:23;1.05;;;0.63;;
78854;SDS011;68206;59.956;30.234;2024-03-23T02:39:49;0.60;;;0.60;;
78854;SDS011;68206;59.956;30.234;2024-03-23T02:42:18;1.00;;;0.50;;
78854;SDS011;68206;59.956;30.234;2024-03-23T02:44:44;0.85;;;0.85;;
78854;SDS011;68206;59.956;30.234;2024-03-23T02:47:12;1.00;;;0.73;;
78854;SDS011;68206;59.956;30.234;2024-03-23T02:49:38;1.17;;;0.85;;
78854;SDS011;68206;59.956;30.234;2024-03-23T02:52:05;0.68;;;0.50;;
78854;SDS011;68206;59.956;30.234;2024-03-23T02:54:31;0.75;;;0.75;;
78854;SDS011;68206;59.956;30.234;2024-03-23T02:56:58;0.85;;;0.50;;
78854;SDS011;68206;59.956;30.234;2024-03-23T02:59:26;0.95;;;0.73;;
78854;SDS011;68206;59.956;30.234;2024-03-23T03:01:53;0.85;;;0.63;;
78854;SDS011;68206;59.956;30.234;2024-03-23T03:04:19;1.30;;;0.82;;
78854;SDS011;68206;59.956;30.234;2024-03-23T03:06:47;0.70;;;0.68;;
78854;SDS011;68206;59.956;30.234;2024-03-23T03:09:13;0.80;;;0.80;;
78854;SDS011;68206;59.956;30.234;2024-03-23T03:11:40;0.85;;;0.80;;
78854;SDS011;68206;59.956;30.234;2024-03-23T03:14:06;2.55;;;0.85;;
78854;SDS011;68206;59.956;30.234;2024-03-23T03:16:35;1.45;;;0.90;;
78854;SDS011;68206;59.956;30.234;2024-03-23T03:19:01;1.08;;;0.65;;
78854;SDS011;68206;59.956;30.234;2024-03-23T03:21:28;1.40;;;0.93;;
78854;SDS011;68206;59.956;30.234;2024-03-23T03:23:55;0.90;;;0.68;;
78854;SDS011;68206;59.956;30.234;2024-03-23T03:26:23;1.15;;;0.80;;
78854;SDS011;68206;59.956;30.234;2024-03-23T03:28:49;0.77;;;0.68;;
78854;SDS011;68206;59.956;30.234;2024-03-23T03:31:17;1.13;;;0.85;;
78854;SDS011;68206;59.956;30.234;2024-03-23T03:33:45;1.13;;;0.90;;
78854;SDS011;68206;59.956;30.234;2024-03-23T03:36:12;0.70;;;0.70;;
78854;SDS011;68206;59.956;30.234;2024-03-23T03:38:38;1.05;;;0.70;;
78854;SDS011;68206;59.956;30.234;2024-03-23T03:41:06;1.08;;;0.82;;
78854;SDS011;68206;59.956;30.234;2024-03-23T03:43:32;0.60;;;0.60;;
78854;SDS011;68206;59.956;30.234;2024-03-23T03:46:00;1.45;;;1.05;;
78854;SDS011;68206;59.956;30.234;2024-03-23T03:48:27;1.52;;;0.63;;
78854;SDS011;68206;59.956;30.234;2024-03-23T03:50:56;0.73;;;0.70;;
78854;SDS011;68206;59.956;30.234;2024-03-23T03:53:22;1.55;;;0.70;;
78854;SDS011;68206;59.956;30.234;2024-03-23T03:55:49;0.85;;;0.73;;
78854;SDS011;68206;59.956;30.234;2024-03-23T03:58:16;0.50;;;0.50;;
78854;SDS011;68206;59.956;30.234;2024-03-23T04:00:43;0.90;;;0.80;;
78854;SDS011;68206;59.956;30.234;2024-03-23T04:03:09;0.70;;;0.70;;
78854;SDS011;68206;59.956;30.234;2024-03-23T04:05:36;1.20;;;0.90;;
78854;SDS011;68206;59.956;30.234;2024-03-23T04:08:05;0.68;;;0.68;;
78854;SDS011;68206;59.956;30.234;2024-03-23T04:10:34;3.08;;;0.63;;
78854;SDS011;68206;59.956;30.234;2024-03-23T04:13:00;1.83;;;0.77;;
78854;SDS011;68206;59.956;30.234;2024-03-23T04:15:30;2.38;;;1.05;;
78854;SDS011;68206;59.956;30.234;2024-03-23T04:17:56;1.27;;;0.95;;
78854;SDS011;68206;59.956;30.234;2024-03-23T04:20:23;2.00;;;1.17;;
78854;SDS011;68206;59.956;30.234;2024-03-23T04:22:49;1.45;;;1.00;;
78854;SDS011;68206;59.956;30.234;2024-03-23T04:25:17;1.25;;;0.95;;
78854;SDS011;68206;59.956;30.234;2024-03-23T04:27:45;0.88;;;0.70;;
78854;SDS011;68206;59.956;30.234;2024-03-23T04:30:12;0.73;;;0.63;;
78854;SDS011;68206;59.956;30.234;2024-03-23T04:35:06;1.60;;;1.13;;
78854;SDS011;68206;59.956;30.234;2024-03-23T04:37:35;1.40;;;1.08;;
78854;SDS011;68206;59.956;30.234;2024-03-23T04:40:03;1.50;;;1.00;;
78854;SDS011;68206;59.956;30.234;2024-03-23T04:42:32;1.27;;;1.08;;
78854;SDS011;68206;59.956;30.234;2024-03-23T04:44:59;2.35;;;0.82;;
78854;SDS011;68206;59.956;30.234;2024-03-23T04:47:28;1.65;;;1.00;;
78854;SDS011;68206;59.956;30.234;2024-03-23T04:49:55;1.00;;;0.82;;
78854;SDS011;68206;59.956;30.234;2024-03-23T04:52:22;1.85;;;1.13;;
78854;SDS011;68206;59.956;30.234;2024-03-23T04:54:49;2.40;;;1.23;;
78854;SDS011;68206;59.956;30.234;2024-03-23T04:57:16;3.30;;;1.05;;
78854;SDS011;68206;59.956;30.234;2024-03-23T04:59:47;1.30;;;1.08;;
78854;SDS011;68206;59.956;30.234;2024-03-23T05:02:14;2.55;;;1.27;;
78854;SDS011;68206;59.956;30.234;2024-03-23T05:04:41;3.90;;;0.98;;
78854;SDS011;68206;59.956;30.234;2024-03-23T05:07:08;2.35;;;1.05;;
78854;SDS011;68206;59.956;30.234;2024-03-23T05:09:35;3.60;;;0.90;;
78854;SDS011;68206;59.956;30.234;2024-03-23T05:12:01;1.08;;;0.98;;
78854;SDS011;68206;59.956;30.234;2024-03-23T05:14:29;1.10;;;1.00;;
78854;SDS011;68206;59.956;30.234;2024-03-23T05:16:57;2.03;;;1.13;;
78854;SDS011;68206;59.956;30.234;2024-03-23T05:19:25;2.45;;;1.15;;
78854;SDS011;68206;59.956;30.234;2024-03-23T05:21:51;1.38;;;1.20;;
78854;SDS011;68206;59.956;30.234;2024-03-23T05:24:19;2.72;;;1.30;;
78854;SDS011;68206;59.956;30.234;2024-03-23T05:26:45;2.03;;;0.90;;
78854;SDS011;68206;59.956;30.234;2024-03-23T05:29:12;3.65;;;1.20;;
78854;SDS011;68206;59.956;30.234;2024-03-23T05:31:39;3.90;;;1.25;;
78854;SDS011;68206;59.956;30.234;2024-03-23T05:34:09;2.65;;;1.10;;
78854;SDS011;68206;59.956;30.234;2024-03-23T05:36:35;1.75;;;1.25;;
78854;SDS011;68206;59.956;30.234;2024-03-23T05:39:03;1.20;;;1.10;;
78854;SDS011;68206;59.956;30.234;2024-03-23T05:41:29;2.83;;;1.20;;
78854;SDS011;68206;59.956;30.234;2024-03-23T05:43:56;5.35;;;1.40;;
78854;SDS011;68206;59.956;30.234;2024-03-23T05:46:23;3.13;;;1.65;;
78854;SDS011;68206;59.956;30.234;2024-03-23T05:48:50;3.15;;;1.35;;
78854;SDS011;68206;59.956;30.234;2024-03-23T05:51:26;3.13;;;1.05;;
78854;SDS011;68206;59.956;30.234;2024-03-23T05:53:54;2.28;;;1.42;;
78854;SDS011;68206;59.956;30.234;2024-03-23T05:56:20;1.80;;;1.20;;
78854;SDS011;68206;59.956;30.234;2024-03-23T05:58:47;2.92;;;1.27;;
78854;SDS011;68206;59.956;30.234;2024-03-23T06:01:14;2.83;;;1.30;;
78854;SDS011;68206;59.956;30.234;2024-03-23T06:03:41;2.97;;;1.52;;
78854;SDS011;68206;59.956;30.234;2024-03-23T06:06:09;3.92;;;1.45;;
78854;SDS011;68206;59.956;30.234;2024-03-23T06:08:38;2.83;;;1.50;;
78854;SDS011;68206;59.956;30.234;2024-03-23T06:11:05;4.30;;;1.05;;
78854;SDS011;68206;59.956;30.234;2024-03-23T06:13:32;3.33;;;1.88;;
78854;SDS011;68206;59.956;30.234;2024-03-23T06:16:00;2.72;;;1.40;;
78854;SDS011;68206;59.956;30.234;2024-03-23T06:18:27;4.65;;;1.33;;
78854;SDS011;68206;59.956;30.234;2024-03-23T06:20:54;3.20;;;1.70;;
78854;SDS011;68206;59.956;30.234;2024-03-23T06:23:21;2.85;;;2.03;;
78854;SDS011;68206;59.956;30.234;2024-03-23T06:25:48;2.20;;;1.20;;
78854;SDS011;68206;59.956;30.234;2024-03-23T06:28:16;2.20;;;1.20;;
78854;SDS011;68206;59.956;30.234;2024-03-23T06:30:43;4.05;;;1.75;;
78854;SDS011;68206;59.956;30.234;2024-03-23T06:33:11;3.47;;;1.30;;
78854;SDS011;68206;59.956;30.234;2024-03-23T06:35:37;2.05;;;1.20;;
78854;SDS011;68206;59.956;30.234;2024-03-23T06:38:04;2.25;;;1.42;;
78854;SDS011;68206;59.956;30.234;2024-03-23T06:40:30;2.70;;;1.40;;
78854;SDS011;68206;59.956;30.234;2024-03-23T06:42:59;4.50;;;1.50;;
78854;SDS011;68206;59.956;30.234;2024-03-23T06:45:25;4.18;;;1.35;;
78854;SDS011;68206;59.956;30.234;2024-03-23T06:47:52;3.67;;;1.60;;
78854;SDS011;68206;59.956;30.234;2024-03-23T06:50:21;2.08;;;1.27;;
78854;SDS011;68206;59.956;30.234;2024-03-23T06:52:49;3.70;;;1.85;;
78854;SDS011;68206;59.956;30.234;2024-03-23T06:55:15;3.70;;;1.45;;
78854;SDS011;68206;59.956;30.234;2024-03-23T06:57:43;3.92;;;1.70;;
78854;SDS011;68206;59.956;30.234;2024-03-23T07:02:41;2.10;;;1.38;;
78854;SDS011;68206;59.956;30.234;2024-03-23T07:05:07;5.47;;;1.90;;
78854;SDS011;68206;59.956;30.234;2024-03-23T07:07:34;3.28;;;1.40;;
78854;SDS011;68206;59.956;30.234;2024-03-23T07:10:00;3.15;;;1.55;;
78854;SDS011;68206;59.956;30.234;2024-03-23T07:12:29;3.63;;;1.35;;
78854;SDS011;68206;59.956;30.234;2024-03-23T07:14:55;4.30;;;1.63;;
78854;SDS011;68206;59.956;30.234;2024-03-23T07:17:23;2.42;;;1.30;;
78854;SDS011;68206;59.956;30.234;2024-03-23T07:19:50;5.75;;;1.70;;
78854;SDS011;68206;59.956;30.234;2024-03-23T07:22:17;2.78;;;1.33;;
78854;SDS011;68206;59.956;30.234;2024-03-23T07:24:43;4.43;;;1.65;;
78854;SDS011;68206;59.956;30.234;2024-03-23T07:27:11;2.75;;;1.58;;
78854;SDS011;68206;59.956;30.234;2024-03-23T07:29:37;3.05;;;1.90;;
78854;SDS011;68206;59.956;30.234;2024-03-23T07:32:04;2.30;;;1.45;;
78854;SDS011;68206;59.956;30.234;2024-03-23T07:34:33;5.10;;;1.52;;
78854;SDS011;68206;59.956;30.234;2024-03-23T07:37:00;5.07;;;2.30;;
78854;SDS011;68206;59.956;30.234;2024-03-23T07:39:26;3.08;;;1.90;;
78854;SDS011;68206;59.956;30.234;2024-03-23T07:41:54;3.63;;;1.55;;
78854;SDS011;68206;59.956;30.234;2024-03-23T07:44:20;4.65;;;1.88;;
78854;SDS011;68206;59.956;30.234;2024-03-23T07:46:47;2.80;;;1.50;;
78854;SDS011;68206;59.956;30.234;2024-03-23T07:49:14;3.75;;;1.70;;
78854;SDS011;68206;59.956;30.234;2024-03-23T07:51:42;2.63;;;1.70;;
78854;SDS011;68206;59.956;30.234;2024-03-23T07:54:08;2.30;;;1.58;;
78854;SDS011;68206;59.956;30.234;2024-03-23T07:56:38;3.47;;;1.63;;
78854;SDS011;68206;59.956;30.234;2024-03-23T07:59:04;2.50;;;1.52;;
78854;SDS011;68206;59.956;30.234;2024-03-23T08:01:31;5.65;;;2.75;;
78854;SDS011;68206;59.956;30.234;2024-03-23T08:03:59;2.22;;;1.27;;
78854;SDS011;68206;59.956;30.234;2024-03-23T08:06:27;3.22;;;1.55;;
78854;SDS011;68206;59.956;30.234;2024-03-23T08:08:55;3.47;;;1.83;;
78854;SDS011;68206;59.956;30.234;2024-03-23T08:13:52;3.83;;;1.65;;
78854;SDS011;68206;59.956;30.234;2024-03-23T08:16:19;5.57;;;1.95;;
78854;SDS011;68206;59.956;30.234;2024-03-23T08:18:45;3.83;;;1.65;;
78854;SDS011;68206;59.956;30.234;2024-03-23T08:21:13;3.70;;;1.65;;
78854;SDS011;68206;59.956;30.234;2024-03-23T08:23:40;3.05;;;1.75;;
78854;SDS011;68206;59.956;30.234;2024-03-23T08:26:09;3.17;;;1.65;;
78854;SDS011;68206;59.956;30.234;2024-03-23T08:28:36;3.60;;;1.70;;
78854;SDS011;68206;59.956;30.234;2024-03-23T08:31:03;3.35;;;1.52;;
78854;SDS011;68206;59.956;30.234;2024-03-23T08:33:31;3.53;;;1.88;;
78854;SDS011;68206;59.956;30.234;2024-03-23T08:35:59;4.07;;;1.60;;
78854;SDS011;68206;59.956;30.234;2024-03-23T08:38:26;3.17;;;1.70;;
78854;SDS011;68206;59.956;30.234;2024-03-23T08:40:57;4.30;;;1.83;;
78854;SDS011;68206;59.956;30.234;2024-03-23T08:43:25;3.60;;;1.60;;
78854;SDS011;68206;59.956;30.234;2024-03-23T08:45:53;3.50;;;1.38;;
78854;SDS011;68206;59.956;30.234;2024-03-23T08:48:19;2.10;;;1.27;;
78854;SDS011;68206;59.956;30.234;2024-03-23T08:50:47;2.38;;;1.40;;
78854;SDS011;68206;59.956;30.234;2024-03-23T08:53:14;3.33;;;1.88;;
78854;SDS011;68206;59.956;30.234;2024-03-23T08:55:41;1.98;;;1.13;;
78854;SDS011;68206;59.956;30.234;2024-03-23T08:58:09;2.70;;;1.63;;
78854;SDS011;68206;59.956;30.234;2024-03-23T09:00:37;3.75;;;1.55;;
78854;SDS011;68206;59.956;30.234;2024-03-23T09:03:04;2.55;;;1.58;;
78854;SDS011;68206;59.956;30.234;2024-03-23T09:05:31;2.80;;;1.50;;
78854;SDS011;68206;59.956;30.234;2024-03-23T09:08:01;4.07;;;1.77;;
78854;SDS011;68206;59.956;30.234;2024-03-23T09:12:55;2.47;;;1.52;;
78854;SDS011;68206;59.956;30.234;2024-03-23T09:15:21;3.47;;;1.60;;
78854;SDS011;68206;59.956;30.234;2024-03-23T09:17:50;3.05;;;1.35;;
78854;SDS011;68206;59.956;30.234;2024-03-23T09:20:16;3.45;;;1.42;;
78854;SDS011;68206;59.956;30.234;2024-03-23T09:22:44;2.58;;;1.60;;
78854;SDS011;68206;59.956;30.234;2024-03-23T09:25:11;1.83;;;1.20;;
78854;SDS011;68206;59.956;30.234;2024-03-23T09:27:38;2.05;;;1.52;;
78854;SDS011;68206;59.956;30.234;2024-03-23T09:30:05;3.47;;;1.70;;
78854;SDS011;68206;59.956;30.234;2024-03-23T09:32:33;2.13;;;1.40;;
78854;SDS011;68206;59.956;30.234;2024-03-23T09:35:00;6.07;;;1.95;;
78854;SDS011;68206;59.956;30.234;2024-03-23T09:37:29;2.28;;;1.58;;
78854;SDS011;68206;59.956;30.234;2024-03-23T09:39:55;2.35;;;1.60;;
78854;SDS011;68206;59.956;30.234;2024-03-23T09:42:22;3.13;;;1.80;;
78854;SDS011;68206;59.956;30.234;2024-03-23T09:44:49;2.85;;;1.60;;
78854;SDS011;68206;59.956;30.234;2024-03-23T09:47:19;2.70;;;1.58;;
78854;SDS011;68206;59.956;30.234;2024-03-23T09:49:47;3.67;;;2.00;;
78854;SDS011;68206;59.956;30.234;2024-03-23T09:52:16;2.78;;;1.90;;
78854;SDS011;68206;59.956;30.234;2024-03-23T09:54:42;3.97;;;1.60;;
78854;SDS011;68206;59.956;30.234;2024-03-23T09:57:10;2.55;;;1.63;;
78854;SDS011;68206;59.956;30.234;2024-03-23T09:59:36;2.78;;;1.70;;
78854;SDS011;68206;59.956;30.234;2024-03-23T10:02:03;2.35;;;1.70;;
78854;SDS011;68206;59.956;30.234;2024-03-23T10:04:37;3.83;;;1.45;;
78854;SDS011;68206;59.956;30.234;2024-03-23T10:07:10;3.25;;;1.83;;
78854;SDS011;68206;59.956;30.234;2024-03-23T10:09:40;2.85;;;1.80;;
78854;SDS011;68206;59.956;30.234;2024-03-23T10:12:08;2.75;;;1.70;;
78854;SDS011;68206;59.956;30.234;2024-03-23T10:14:36;3.05;;;1.63;;
78854;SDS011;68206;59.956;30.234;2024-03-23T10:17:11;2.70;;;1.92;;
78854;SDS011;68206;59.956;30.234;2024-03-23T10:19:39;6.20;;;2.10;;
78854;SDS011;68206;59.956;30.234;2024-03-23T10:22:08;3.58;;;2.17;;
78854;SDS011;68206;59.956;30.234;2024-03-23T10:24:35;2.80;;;1.70;;
78854;SDS011;68206;59.956;30.234;2024-03-23T10:27:04;2.95;;;1.70;;
78854;SDS011;68206;59.956;30.234;2024-03-23T10:29:30;3.00;;;1.65;;
78854;SDS011;68206;59.956;30.234;2024-03-23T10:32:07;2.97;;;1.75;;
78854;SDS011;68206;59.956;30.234;2024-03-23T10:34:34;2.55;;;1.40;;
78854;SDS011;68206;59.956;30.234;2024-03-23T10:37:03;3.13;;;1.73;;
78854;SDS011;68206;59.956;30.234;2024-03-23T10:39:33;3.00;;;1.65;;
78854;SDS011;68206;59.956;30.234;2024-03-23T10:42:02;2.13;;;1.50;;
78854;SDS011;68206;59.956;30.234;2024-03-23T10:44:31;3.90;;;1.80;;
78854;SDS011;68206;59.956;30.234;2024-03-23T10:46:58;2.13;;;1.50;;
78854;SDS011;68206;59.956;30.234;2024-03-23T10:49:26;1.67;;;1.33;;
78854;SDS011;68206;59.956;30.234;2024-03-23T10:51:57;2.30;;;1.40;;
78854;SDS011;68206;59.956;30.234;2024-03-23T10:54:24;2.33;;;1.38;;
78854;SDS011;68206;59.956;30.234;2024-03-23T10:56:54;3.58;;;1.50;;
78854;SDS011;68206;59.956;30.234;2024-03-23T10:59:25;2.53;;;1.60;;
78854;SDS011;68206;59.956;30.234;2024-03-23T11:01:54;4.55;;;1.45;;
78854;SDS011;68206;59.956;30.234;2024-03-23T11:04:31;2.55;;;1.85;;
78854;SDS011;68206;59.956;30.234;2024-03-23T11:06:59;2.05;;;1.40;;
78854;SDS011;68206;59.956;30.234;2024-03-23T11:09:38;2.28;;;1.40;;
78854;SDS011;68206;59.956;30.234;2024-03-23T11:12:17;2.20;;;1.25;;
78854;SDS011;68206;59.956;30.234;2024-03-23T11:14:59;1.75;;;1.25;;
78854;SDS011;68206;59.956;30.234;2024-03-23T11:17:29;2.22;;;1.52;;
78854;SDS011;68206;59.956;30.234;2024-03-23T11:19:57;1.52;;;1.25;;
78854;SDS011;68206;59.956;30.234;2024-03-23T11:22:40;1.85;;;1.38;;
78854;SDS011;68206;59.956;30.234;2024-03-23T11:25:13;3.17;;;1.23;;
78854;SDS011;68206;59.956;30.234;2024-03-23T11:27:40;2.15;;;1.33;;
78854;SDS011;68206;59.956;30.234;2024-03-23T11:30:16;1.80;;;1.20;;
78854;SDS011;68206;59.956;30.234;2024-03-23T11:32:43;2.58;;;1.60;;
78854;SDS011;68206;59.956;30.234;2024-03-23T11:35:24;3.15;;;1.63;;
78854;SDS011;68206;59.956;30.234;2024-03-23T11:38:01;2.95;;;1.65;;
78854;SDS011;68206;59.956;30.234;2024-03-23T11:40:32;1.92;;;1.50;;
78854;SDS011;68206;59.956;30.234;2024-03-23T11:42:59;4.10;;;1.58;;
78854;SDS011;68206;59.956;30.234;2024-03-23T11:45:29;2.40;;;1.67;;
78854;SDS011;68206;59.956;30.234;2024-03-23T11:48:04;6.43;;;1.83;;
78854;SDS011;68206;59.956;30.234;2024-03-23T11:50:33;2.38;;;1.60;;
78854;SDS011;68206;59.956;30.234;2024-03-23T11:53:06;2.55;;;1.70;;
78854;SDS011;68206;59.956;30.234;2024-03-23T11:55:42;3.47;;;2.00;;
78854;SDS011;68206;59.956;30.234;2024-03-23T11:58:10;2.92;;;1.80;;
78854;SDS011;68206;59.956;30.234;2024-03-23T12:00:39;3.00;;;1.92;;
78854;SDS011;68206;59.956;30.234;2024-03-23T12:03:06;3.17;;;1.65;;
78854;SDS011;68206;59.956;30.234;2024-03-23T12:05:33;3.22;;;1.92;;
78854;SDS011;68206;59.956;30.234;2024-03-23T12:10:44;3.42;;;2.00;;
78854;SDS011;68206;59.956;30.234;2024-03-23T12:13:14;3.33;;;1.80;;
78854;SDS011;68206;59.956;30.234;2024-03-23T12:15:44;2.08;;;1.50;;
78854;SDS011;68206;59.956;30.234;2024-03-23T12:18:11;2.90;;;1.90;;
78854;SDS011;68206;59.956;30.234;2024-03-23T12:20:39;3.20;;;1.90;;
78854;SDS011;68206;59.956;30.234;2024-03-23T12:23:06;2.67;;;1.90;;
78854;SDS011;68206;59.956;30.234;2024-03-23T12:25:39;2.88;;;1.73;;
78854;SDS011;68206;59.956;30.234;2024-03-23T12:28:06;2.30;;;1.70;;
78854;SDS011;68206;59.956;30.234;2024-03-23T12:30:35;2.28;;;1.60;;
78854;SDS011;68206;59.956;30.234;2024-03-23T12:33:03;2.40;;;1.73;;
78854;SDS011;68206;59.956;30.234;2024-03-23T12:35:31;2.00;;;1.58;;
78854;SDS011;68206;59.956;30.234;2024-03-23T12:37:57;2.55;;;1.80;;
78854;SDS011;68206;59.956;30.234;2024-03-23T12:40:24;3.08;;;1.60;;
78854;SDS011;68206;59.956;30.234;2024-03-23T12:42:50;2.70;;;1.63;;
78854;SDS011;68206;59.956;30.234;2024-03-23T12:45:18;2.92;;;1.65;;
78854;SDS011;68206;59.956;30.234;2024-03-23T12:47:44;2.60;;;1.45;;
78854;SDS011;68206;59.956;30.234;2024-03-23T12:50:14;1.58;;;1.38;;
78854;SDS011;68206;59.956;30.234;2024-03-23T12:52:40;1.90;;;1.25;;
78854;SDS011;68206;59.956;30.234;2024-03-23T12:55:07;1.25;;;1.00;;
78854;SDS011;68206;59.956;30.234;2024-03-23T13:00:02;1.38;;;1.20;;
78854;SDS011;68206;59.956;30.234;2024-03-23T13:02:29;1.95;;;1.02;;
78854;SDS011;68206;59.956;30.234;2024-03-23T13:04:57;1.65;;;1.40;;
78854;SDS011;68206;59.956;30.234;2024-03-23T13:07:25;1.65;;;1.13;;
78854;SDS011;68206;59.956;30.234;2024-03-23T13:09:52;1.30;;;1.10;;
78854;SDS011;68206;59.956;30.234;2024-03-23T13:12:19;1.73;;;1.30;;
78854;SDS011;68206;59.956;30.234;2024-03-23T13:14:46;1.55;;;1.08;;
78854;SDS011;68206;59.956;30.234;2024-03-23T13:17:13;1.80;;;1.33;;
78854;SDS011;68206;59.956;30.234;2024-03-23T13:19:40;1.73;;;1.35;;
78854;SDS011;68206;59.956;30.234;2024-03-23T13:22:07;1.90;;;1.30;;
78854;SDS011;68206;59.956;30.234;2024-03-23T13:24:38;3.55;;;1.30;;
78854;SDS011;68206;59.956;30.234;2024-03-23T13:27:04;1.95;;;1.50;;
78854;SDS011;68206;59.956;30.234;2024-03-23T13:29:33;2.05;;;1.38;;
78854;SDS011;68206;59.956;30.234;2024-03-23T13:32:00;2.33;;;1.20;;
78854;SDS011;68206;59.956;30.234;2024-03-23T13:34:27;2.22;;;1.35;;
78854;SDS011;68206;59.956;30.234;2024-03-23T13:36:55;3.15;;;1.45;;
78854;SDS011;68206;59.956;30.234;2024-03-23T13:39:24;2.60;;;1.75;;
78854;SDS011;68206;59.956;30.234;2024-03-23T13:41:52;2.60;;;1.30;;
78854;SDS011;68206;59.956;30.234;2024-03-23T13:44:20;2.47;;;1.48;;
78854;SDS011;68206;59.956;30.234;2024-03-23T13:46:46;2.50;;;1.60;;
78854;SDS011;68206;59.956;30.234;2024-03-23T13:49:19;2.65;;;1.48;;
78854;SDS011;68206;59.956;30.234;2024-03-23T13:51:52;1.85;;;1.38;;
78854;SDS011;68206;59.956;30.234;2024-03-23T13:54:20;2.15;;;1.50;;
78854;SDS011;68206;59.956;30.234;2024-03-23T13:59:15;1.30;;;1.20;;
78854;SDS011;68206;59.956;30.234;2024-03-23T14:01:42;1.88;;;1.27;;
78854;SDS011;68206;59.956;30.234;2024-03-23T14:04:11;2.40;;;1.50;;
78854;SDS011;68206;59.956;30.234;2024-03-23T14:06:37;1.40;;;1.30;;
78854;SDS011;68206;59.956;30.234;2024-03-23T14:09:05;1.05;;;0.85;;
78854;SDS011;68206;59.956;30.234;2024-03-23T14:11:34;2.28;;;1.35;;
78854;SDS011;68206;59.956;30.234;2024-03-23T14:14:02;2.13;;;1.33;;
78854;SDS011;68206;59.956;30.234;2024-03-23T14:16:30;2.58;;;1.50;;
78854;SDS011;68206;59.956;30.234;2024-03-23T14:18:57;1.17;;;1.02;;
78854;SDS011;68206;59.956;30.234;2024-03-23T14:21:24;1.63;;;1.38;;
78854;SDS011;68206;59.956;30.234;2024-03-23T14:23:51;3.35;;;1.50;;
78854;SDS011;68206;59.956;30.234;2024-03-23T14:26:19;1.58;;;1.20;;
78854;SDS011;68206;59.956;30.234;2024-03-23T14:28:45;1.35;;;1.20;;
78854;SDS011;68206;59.956;30.234;2024-03-23T14:31:13;1.33;;;1.23;;
78854;SDS011;68206;59.956;30.234;2024-03-23T14:33:40;1.60;;;1.38;;
78854;SDS011;68206;59.956;30.234;2024-03-23T14:38:38;3.45;;;1.98;;
78854;SDS011;68206;59.956;30.234;2024-03-23T14:41:05;2.25;;;1.30;;
78854;SDS011;68206;59.956;30.234;2024-03-23T14:43:31;2.22;;;1.50;;
78854;SDS011;68206;59.956;30.234;2024-03-23T14:46:08;2.58;;;1.40;;
78854;SDS011;68206;59.956;30.234;2024-03-23T14:48:35;2.55;;;1.40;;
78854;SDS011;68206;59.956;30.234;2024-03-23T14:51:04;1.92;;;1.38;;
78854;SDS011;68206;59.956;30.234;2024-03-23T14:53:32;1.70;;;1.30;;
78854;SDS011;68206;59.956;30.234;2024-03-23T14:55:59;1.95;;;1.20;;
78854;SDS011;68206;59.956;30.234;2024-03-23T14:58:26;2.67;;;1.63;;
78854;SDS011;68206;59.956;30.234;2024-03-23T15:00:53;1.98;;;1.52;;
78854;SDS011;68206;59.956;30.234;2024-03-23T15:03:25;2.30;;;1.30;;
78854;SDS011;68206;59.956;30.234;2024-03-23T15:05:53;1.80;;;1.27;;
78854;SDS011;68206;59.956;30.234;2024-03-23T15:08:22;1.48;;;1.30;;
78854;SDS011;68206;59.956;30.234;2024-03-23T15:10:49;2.80;;;1.50;;
78854;SDS011;68206;59.956;30.234;2024-03-23T15:13:16;2.65;;;2.10;;
78854;SDS011;68206;59.956;30.234;2024-03-23T15:15:44;2.75;;;1.30;;
78854;SDS011;68206;59.956;30.234;2024-03-23T15:18:11;2.47;;;1.70;;
78854;SDS011;68206;59.956;30.234;2024-03-23T15:20:40;2.38;;;1.40;;
78854;SDS011;68206;59.956;30.234;2024-03-23T15:23:06;4.95;;;1.70;;
78854;SDS011;68206;59.956;30.234;2024-03-23T15:25:35;2.03;;;1.40;;
78854;SDS011;68206;59.956;30.234;2024-03-23T15:28:01;1.52;;;1.30;;
78854;SDS011;68206;59.956;30.234;2024-03-23T15:30:29;1.95;;;1.48;;
78854;SDS011;68206;59.956;30.234;2024-03-23T15:32:55;1.85;;;1.27;;
78854;SDS011;68206;59.956;30.234;2024-03-23T15:35:23;2.40;;;1.40;;
78854;SDS011;68206;59.956;30.234;2024-03-23T15:37:49;3.13;;;1.70;;
78854;SDS011;68206;59.956;30.234;2024-03-23T15:40:17;1.98;;;1.58;;
78854;SDS011;68206;59.956;30.234;2024-03-23T15:42:45;2.58;;;1.52;;
78854;SDS011;68206;59.956;30.234;2024-03-23T15:45:12;1.50;;;1.30;;
78854;SDS011;68206;59.956;30.234;2024-03-23T15:47:39;2.55;;;1.40;;
78854;SDS011;68206;59.956;30.234;2024-03-23T15:50:07;2.80;;;1.55;;
78854;SDS011;68206;59.956;30.234;2024-03-23T15:52:35;1.27;;;1.17;;
78854;SDS011;68206;59.956;30.234;2024-03-23T15:55:03;2.95;;;1.40;;